Time;durP1;ratioP1;P1;durP2;ratioP2;P2;SDS_P1;SDS_P2;PMS_P1;PMS_P2;Temp;Humidity;BMP_temperature;BMP_pressure;BME280_temperature;BME280_humidity;BME280_pressure;Samples;Min_cycle;Max_cycle;Signal;HPM_P1;HPM_P2
2021/07/30 00:05:01;;;;;;;8.82;6.53;;;14.00;99.90;;;14.67;100.00;94751.00;2463434;53;33578;-52
2021/07/30 00:07:47;;;;;;;8.10;6.93;;;14.00;99.90;;;14.54;100.00;94773.00;2222963;55;26737;-53
2021/07/30 00:10:34;;;;;;;7.53;6.50;;;14.00;99.90;;;14.51;100.00;94768.00;2454831;53;26780;-52
2021/07/30 00:16:17;;;;;;;6.80;6.00;;;14.00;99.90;;;14.53;100.00;94760.00;2405826;55;33720;-53
2021/07/30 00:19:03;;;;;;;8.83;6.67;;;13.90;99.90;;;14.42;100.00;94779.00;2199196;55;26809;-53
2021/07/30 00:21:50;;;;;;;7.97;7.07;;;13.90;99.90;;;14.40;100.00;94784.00;2420792;55;27425;-52
2021/07/30 00:27:33;;;;;;;10.18;7.25;;;13.90;99.90;;;14.52;100.00;94774.00;2418791;55;33849;-53
2021/07/30 00:30:19;;;;;;;7.80;6.93;;;13.80;99.90;;;14.33;100.00;94783.00;2169659;56;27434;-53
2021/07/30 00:38:58;;;;;;;9.83;5.70;;;13.80;99.90;;;14.39;100.00;94756.00;2440726;54;34400;-53
2021/07/30 00:41:44;;;;;;;7.18;5.40;;;13.80;99.90;;;14.25;100.00;94775.00;2238540;54;26616;-52
2021/07/30 00:44:31;;;;;;;8.02;5.65;;;13.70;99.90;;;14.03;100.00;94772.00;2235839;55;27455;-53
2021/07/30 00:47:18;;;;;;;7.28;5.72;;;13.60;99.90;;;13.98;100.00;94777.00;2237409;55;26099;-53
2021/07/30 00:50:06;;;;;;;6.15;4.72;;;13.50;99.90;;;13.88;100.00;94775.00;2206823;55;26822;-53
2021/07/30 00:52:53;;;;;;;7.93;5.57;;;13.40;99.90;;;13.82;100.00;94767.00;2187306;55;27303;-53
2021/07/30 00:55:40;;;;;;;6.33;5.10;;;13.40;99.90;;;13.86;100.00;94773.00;2188373;55;26821;-53
2021/07/30 00:58:28;;;;;;;5.43;4.93;;;13.40;99.90;;;13.82;100.00;94775.00;2223312;55;26588;-53
2021/07/30 01:01:15;;;;;;;6.77;5.30;;;13.40;99.90;;;13.93;100.00;94774.00;2240445;56;26733;-53
2021/07/30 01:04:02;;;;;;;6.00;5.40;;;13.40;99.90;;;13.94;100.00;94770.00;2242193;56;26762;-53
2021/07/30 01:06:49;;;;;;;5.55;5.05;;;13.40;99.90;;;13.89;100.00;94763.00;2241375;56;26566;-52
2021/07/30 01:12:31;;;;;;;6.90;5.40;;;13.40;99.90;;;13.88;100.00;94750.00;2410549;55;33337;-52
2021/07/30 01:15:17;;;;;;;8.23;5.47;;;13.30;99.90;;;13.78;100.00;94772.00;2199783;56;27318;-53
2021/07/30 01:18:04;;;;;;;10.40;5.80;;;13.30;99.90;;;13.82;100.00;94777.00;2210468;55;27249;-56
2021/07/30 01:23:56;;;;;;;6.50;5.80;;;13.30;99.90;;;13.90;100.00;94765.00;2361985;54;34200;-53
2021/07/30 01:26:42;;;;;;;7.57;5.90;;;13.30;99.90;;;13.88;100.00;94774.00;2132425;56;27268;-52
2021/07/30 01:29:29;;;;;;;6.80;5.70;;;13.30;99.90;;;13.77;100.00;94766.00;2354133;56;26701;-52
2021/07/30 01:32:16;;;;;;;8.33;5.57;;;13.40;99.90;;;13.72;100.00;94759.00;2158113;56;26118;-53
2021/07/30 01:35:03;;;;;;;6.13;5.40;;;13.30;99.90;;;13.76;100.00;94770.00;2370858;56;27155;-52
2021/07/30 01:40:47;;;;;;;6.43;5.83;;;13.30;99.90;;;13.84;100.00;94744.00;2456784;52;34003;-52
2021/07/30 01:43:33;;;;;;;8.50;6.50;;;13.20;99.90;;;13.61;100.00;94754.00;2212288;55;26563;-52
2021/07/30 01:46:20;;;;;;;6.47;5.87;;;13.20;99.90;;;13.62;100.00;94764.00;2456022;54;27161;-53
2021/07/30 01:52:04;;;;;;;7.83;5.60;;;13.20;99.90;;;13.77;100.00;94749.00;2441609;53;34494;-52
2021/07/30 01:57:46;;;;;;;8.33;5.33;;;13.20;99.90;;;13.83;100.00;94739.00;2369132;55;33915;-53
2021/07/30 02:00:32;;;;;;;8.23;5.93;;;13.30;99.90;;;13.66;100.00;94760.00;2371342;56;26751;-53
2021/07/30 02:03:18;;;;;;;5.93;5.30;;;13.20;99.90;;;13.58;100.00;94765.00;2155542;57;26662;-52
2021/07/30 02:06:09;;;;;;;5.67;5.17;;;13.20;99.90;;;13.65;100.00;94772.00;2160568;56;27166;-52
2021/07/30 02:08:55;;;;;;;6.27;5.40;;;13.20;99.90;;;13.57;100.00;94771.00;2179643;56;27099;-52
2021/07/30 02:11:42;;;;;;;7.90;5.13;;;13.10;99.90;;;13.50;100.00;94758.00;2185675;57;26928;-52
2021/07/30 02:14:28;;;;;;;5.87;5.27;;;13.10;99.90;;;13.55;100.00;94761.00;2401694;56;26385;-52
2021/07/30 02:17:15;;;;;;;8.30;6.20;;;13.20;99.90;;;13.69;100.00;94760.00;2188103;57;26561;-52
2021/07/30 02:20:01;;;;;;;7.27;5.67;;;13.20;99.90;;;13.70;100.00;94763.00;2403607;56;26671;-53
2021/07/30 02:25:45;;;;;;;6.57;5.60;;;13.30;99.90;;;13.90;100.00;94754.00;2431943;55;33971;-53
2021/07/30 02:28:31;;;;;;;5.90;5.30;;;13.40;99.90;;;14.00;100.00;94780.00;2432044;55;26659;-53
2021/07/30 02:31:17;;;;;;;9.15;5.60;;;13.40;99.90;;;14.06;100.00;94785.00;2431883;55;26572;-52
2021/07/30 02:34:04;;;;;;;5.93;5.30;;;13.40;99.90;;;13.91;100.00;94789.00;2210540;57;26728;-53
2021/07/30 02:36:50;;;;;;;5.53;5.03;;;13.40;99.90;;;13.93;100.00;94793.00;2432827;55;27319;-53
2021/07/30 02:39:37;;;;;;;5.82;5.32;;;13.40;99.90;;;13.91;100.00;94797.00;2213020;56;26137;-53
2021/07/30 02:42:23;;;;;;;7.28;5.70;;;13.50;99.90;;;13.96;100.00;94792.00;2432277;55;26702;-53
2021/07/30 02:51:04;;;;;;;6.25;5.65;;;13.60;99.90;;;14.19;100.00;94763.00;2382897;55;33921;-53
2021/07/30 02:53:50;;;;;;;8.00;5.43;;;13.60;99.90;;;14.10;100.00;94783.00;2157360;57;26573;-51
2021/07/30 02:56:36;;;;;;;7.03;5.20;;;13.60;99.90;;;14.07;100.00;94788.00;2362587;56;27579;-52
2021/07/30 02:59:22;;;;;;;6.05;5.45;;;13.60;99.90;;;13.99;100.00;94779.00;2148088;58;27093;-51
2021/07/30 03:02:08;;;;;;;5.87;5.37;;;13.60;99.90;;;14.00;100.00;94778.00;2149302;57;26176;-52
2021/07/30 03:04:55;;;;;;;5.90;5.30;;;13.70;99.90;;;14.10;100.00;94796.00;2152239;57;26631;-51
2021/07/30 03:07:41;;;;;;;6.95;5.75;;;13.70;99.90;;;14.20;100.00;94793.00;2361558;56;26920;-52
2021/07/30 03:10:28;;;;;;;6.07;5.40;;;13.70;99.90;;;14.18;100.00;94783.00;2155020;57;27386;-52
2021/07/30 03:13:14;;;;;;;7.30;5.65;;;13.60;99.90;;;14.08;100.00;94801.00;2163716;57;27171;-51
2021/07/30 03:16:01;;;;;;;6.40;5.80;;;13.60;99.90;;;13.98;100.00;94783.00;2162338;58;27194;-51
2021/07/30 03:21:44;;;;;;;6.90;5.72;;;13.50;99.90;;;13.99;100.00;94779.00;2412851;54;33749;-51
2021/07/30 03:27:27;;;;;;;6.32;5.40;;;13.40;99.90;;;14.23;100.00;94788.00;2352061;56;34157;-51
2021/07/30 03:33:12;;;;;;;6.20;5.53;;;13.60;99.90;;;14.10;100.00;94791.00;2436999;54;34337;-51
2021/07/30 03:35:58;;;;;;;6.55;5.95;;;13.60;99.90;;;14.06;100.00;94810.00;2203434;56;27338;-52
2021/07/30 03:38:44;;;;;;;7.40;5.60;;;13.70;99.90;;;14.22;100.00;94805.00;2428691;55;26917;-51
2021/07/30 03:41:31;;;;;;;6.43;5.83;;;13.70;99.90;;;14.14;100.00;94792.00;2212910;55;26576;-52
2021/07/30 03:44:17;;;;;;;6.70;5.50;;;13.70;99.90;;;14.09;100.00;94795.00;2428794;55;27529;-51
2021/07/30 03:47:04;;;;;;;6.00;5.50;;;13.70;99.90;;;14.26;100.00;94801.00;2205871;56;26787;-51
2021/07/30 03:49:51;;;;;;;11.85;5.95;;;13.80;99.90;;;14.19;100.00;94798.00;2428291;55;27201;-51
2021/07/30 03:52:37;;;;;;;6.30;5.70;;;13.60;99.90;;;14.00;100.00;94797.00;2225962;55;26068;-52
2021/07/30 03:55:24;;;;;;;7.35;6.20;;;13.60;99.90;;;14.01;100.00;94804.00;2219238;55;26565;-51
2021/07/30 03:58:10;;;;;;;8.18;6.30;;;13.60;99.90;;;13.99;100.00;94819.00;2464722;54;26700;-52
2021/07/30 04:00:56;;;;;;;6.70;6.00;;;13.60;99.90;;;14.08;100.00;94817.00;2231689;55;26786;-53
2021/07/30 04:03:44;;;;;;;7.87;6.03;;;13.60;99.90;;;14.17;100.00;94810.00;2459133;54;27406;-52
2021/07/30 04:06:31;;;;;;;7.12;6.40;;;13.70;99.90;;;14.20;100.00;94809.00;2229444;55;27279;-51
2021/07/30 04:09:17;;;;;;;7.35;5.85;;;13.70;99.90;;;14.19;100.00;94805.00;2453809;54;27042;-51
2021/07/30 04:12:04;;;;;;;6.57;5.85;;;13.80;99.90;;;14.16;100.00;94795.00;2231581;55;26081;-51
2021/07/30 04:14:51;;;;;;;7.40;5.87;;;13.70;99.90;;;14.10;100.00;94802.00;2460805;54;26813;-52
2021/07/30 04:17:37;;;;;;;6.77;6.03;;;13.70;99.90;;;14.18;100.00;94809.00;2238168;55;27367;-51
2021/07/30 04:20:23;;;;;;;6.57;5.93;;;13.90;99.90;;;14.57;100.00;94811.00;2239166;55;27142;-51
2021/07/30 04:23:10;;;;;;;7.30;5.87;;;14.00;99.90;;;14.49;100.00;94812.00;2438899;55;27201;-52
2021/07/30 04:25:57;;;;;;;6.93;5.90;;;14.00;99.90;;;14.52;100.00;94824.00;2214893;55;27139;-51
2021/07/30 04:28:43;;;;;;;9.20;6.37;;;14.00;99.90;;;14.50;100.00;94822.00;2437192;55;26584;-52
2021/07/30 04:31:30;;;;;;;6.22;5.62;;;14.10;99.90;;;14.53;100.00;94824.00;2216194;54;26191;-52
2021/07/30 04:34:16;;;;;;;6.67;5.90;;;14.10;99.90;;;14.50;100.00;94798.00;2217001;55;26715;-52
2021/07/30 04:40:01;;;;;;;6.55;5.70;;;14.20;99.90;;;14.68;100.00;94784.00;2343187;56;34063;-51
2021/07/30 04:42:47;;;;;;;6.15;5.37;;;14.10;99.90;;;14.53;100.00;94808.00;2150078;57;27051;-51
2021/07/30 04:45:35;;;;;;;8.77;5.78;;;14.10;99.90;;;14.56;100.00;94807.00;2355792;57;26847;-50
2021/07/30 04:48:22;;;;;;;6.97;5.97;;;14.10;99.90;;;14.56;100.00;94811.00;2134297;58;26936;-52
2021/07/30 04:51:09;;;;;;;8.25;5.70;;;14.00;99.90;;;14.49;100.00;94807.00;2323596;57;26761;-51
2021/07/30 04:56:51;;;;;;;7.72;6.40;;;14.20;99.90;;;14.85;100.00;94788.00;2442851;53;34758;-51
2021/07/30 04:59:38;;;;;;;9.88;6.35;;;14.20;99.90;;;14.75;100.00;94801.00;2199596;55;27295;-52
2021/07/30 05:02:24;;;;;;;8.02;6.90;;;14.30;99.90;;;14.82;100.00;94801.00;2199833;55;26719;-52
2021/07/30 05:05:11;;;;;;;7.30;6.60;;;14.40;99.90;;;14.99;100.00;94808.00;2200324;55;26784;-52
2021/07/30 05:07:57;;;;;;;7.05;6.35;;;14.80;99.90;;;15.51;100.00;94791.00;2184273;55;26695;-52
2021/07/30 05:13:45;;;;;;;6.70;6.10;;;14.90;99.90;;;15.89;100.00;94770.00;2407040;55;34009;-52
2021/07/30 05:16:32;;;;;;;6.53;5.80;;;15.20;99.90;;;15.96;100.00;94784.00;2192503;56;26660;-51
2021/07/30 05:19:18;;;;;;;6.70;5.62;;;15.40;99.90;;;16.07;100.00;94786.00;2404271;55;26585;-52
2021/07/30 05:22:05;;;;;;;8.80;6.25;;;15.40;99.90;;;16.02;100.00;94788.00;2184801;56;26649;-53
2021/07/30 05:24:51;;;;;;;6.47;5.87;;;15.50;99.90;;;16.05;100.00;94788.00;2414764;55;26640;-52
2021/07/30 05:27:37;;;;;;;7.97;6.78;;;15.60;99.90;;;16.23;100.00;94781.00;2189136;56;26852;-51
2021/07/30 05:30:25;;;;;;;7.07;6.18;;;15.70;99.90;;;16.38;100.00;94783.00;2184294;56;26690;-51
2021/07/30 05:33:12;;;;;;;10.07;6.78;;;15.80;99.90;;;16.43;100.00;94775.00;2403258;55;27251;-52
2021/07/30 05:38:55;;;;;;;7.68;6.57;;;16.10;99.90;;;16.97;100.00;94768.00;2405988;55;33751;-51
2021/07/30 05:41:41;;;;;;;6.65;5.95;;;16.40;99.90;;;17.13;100.00;94786.00;2373401;56;26189;-51
2021/07/30 05:44:27;;;;;;;7.95;6.30;;;16.70;99.90;;;17.49;100.00;94781.00;2182065;55;26732;-52
2021/07/30 05:47:13;;;;;;;6.85;6.15;;;17.00;99.90;;;17.92;100.00;94776.00;2404159;55;26640;-52
2021/07/30 05:50:00;;;;;;;7.53;6.65;;;17.10;99.90;;;17.75;100.00;94773.00;2377862;55;26730;-52
2021/07/30 05:52:46;;;;;;;6.93;6.22;;;17.00;99.90;;;17.68;100.00;94769.00;2160401;56;26918;-51
2021/07/30 05:55:33;;;;;;;6.68;6.03;;;16.90;99.90;;;17.57;100.00;94765.00;2371468;56;26157;-52
2021/07/30 05:58:19;;;;;;;7.72;6.40;;;17.00;99.90;;;17.81;100.00;94769.00;2161025;56;27181;-52
2021/07/30 06:01:05;;;;;;;7.18;6.37;;;17.10;99.90;;;17.73;100.00;94771.00;2159951;56;26747;-51
2021/07/30 06:06:49;;;;;;;7.95;5.93;;;17.10;99.90;;;17.89;100.00;94761.00;2382039;55;34004;-52
2021/07/30 06:09:35;;;;;;;7.18;6.22;;;17.10;99.90;;;17.71;100.00;94766.00;2170913;56;26747;-52
2021/07/30 06:12:22;;;;;;;6.82;5.60;;;17.30;99.90;;;17.93;100.00;94762.00;2390377;56;26806;-52
2021/07/30 06:15:10;;;;;;;8.15;5.97;;;17.40;99.90;;;18.08;100.00;94770.00;2174306;56;27226;-51
2021/07/30 06:17:57;;;;;;;6.15;5.53;;;17.40;99.90;;;18.12;100.00;94763.00;2414371;56;26693;-51
2021/07/30 06:20:43;;;;;;;7.60;6.07;;;17.50;99.90;;;18.19;100.00;94760.00;2168671;58;26688;-51
2021/07/30 06:23:29;;;;;;;6.78;6.00;;;17.70;99.90;;;18.46;100.00;94773.00;2167728;58;26712;-51
2021/07/30 06:26:16;;;;;;;7.15;5.93;;;18.00;99.90;;;18.92;100.00;94767.00;2382044;56;26816;-52
2021/07/30 06:29:02;;;;;;;6.93;5.93;;;18.30;99.90;;;19.18;100.00;94768.00;2166666;58;26212;-52
2021/07/30 06:31:49;;;;;;;7.47;4.93;;;19.10;99.90;;;20.45;100.00;94764.00;2381539;56;26793;-52
2021/07/30 06:34:35;;;;;;;5.93;5.43;;;20.20;99.90;;;22.11;100.00;94752.00;2165969;58;26920;-53
2021/07/30 06:37:22;;;;;;;6.03;5.43;;;20.90;99.90;;;22.89;100.00;94765.00;2372082;56;26784;-51
2021/07/30 06:43:07;;;;;;;6.95;5.78;;;21.00;99.90;;;22.37;100.00;94756.00;2353034;55;34644;-52
2021/07/30 06:45:59;;;;;;;6.68;5.97;;;20.90;99.90;;;21.91;100.00;94754.00;2163137;57;26624;-52
2021/07/30 06:48:46;;;;;;;7.37;6.03;;;20.90;99.90;;;22.27;100.00;94756.00;2351654;56;26697;-52
2021/07/30 06:51:33;;;;;;;7.07;5.80;;;21.60;99.90;;;23.30;100.00;94764.00;2139414;57;27418;-52
2021/07/30 06:57:15;;;;;;;6.75;5.90;;;21.80;99.90;;;24.23;100.00;94754.00;2292658;57;34914;-52
2021/07/30 07:00:02;;;;;;;6.30;5.75;;;22.30;99.90;;;24.09;100.00;94752.00;2107007;58;26780;-53
2021/07/30 07:02:49;;;;;;;7.22;5.68;;;22.60;99.90;;;24.46;100.00;94748.00;2100795;58;26151;-52
2021/07/30 07:05:35;;;;;;;6.25;5.65;;;23.00;99.90;;;24.53;100.00;94756.00;2325061;56;26778;-52
2021/07/30 07:11:17;;;;;;;6.43;5.55;;;23.30;99.90;;;24.41;100.00;94742.00;2381475;55;34297;-52
2021/07/30 07:14:04;;;;;;;8.77;5.45;;;23.80;99.90;;;25.59;100.00;94741.00;2354361;57;26958;-53
2021/07/30 07:16:50;;;;;;;6.15;5.55;;;25.00;99.90;;;27.75;100.00;94740.00;2144385;57;26688;-53
2021/07/30 07:19:37;;;;;;;6.43;5.78;;;25.70;99.90;;;28.31;100.00;94743.00;2371311;57;26853;-52
2021/07/30 07:22:23;;;;;;;6.37;5.60;;;26.50;99.90;;;28.70;100.00;94737.00;2370870;56;25131;-53
2021/07/30 07:28:09;;;;;;;7.50;6.53;;;26.10;99.90;;;27.34;100.00;94736.00;2355495;55;29649;-51
2021/07/30 07:30:56;;;;;;;6.70;6.10;;;25.80;99.90;;;27.24;100.00;94737.00;2345445;57;26931;-52
2021/07/30 07:33:42;;;;;;;6.70;6.10;;;25.10;99.90;;;26.18;100.00;94730.00;2117013;58;26727;-52
2021/07/30 07:36:29;;;;;;;6.57;5.97;;;24.80;99.90;;;26.25;100.00;94726.00;2157971;57;26704;-52
2021/07/30 07:39:15;;;;;;;6.93;6.05;;;25.10;99.90;;;26.93;100.00;94725.00;2154265;59;26694;-53
2021/07/30 07:42:01;;;;;;;6.55;5.95;;;25.30;99.90;;;27.14;100.00;94719.00;2153085;59;26971;-52
2021/07/30 07:44:51;;;;;;;6.70;6.00;;;25.90;99.90;;;27.44;100.00;94720.00;2373418;56;26705;-52
2021/07/30 07:47:38;;;;;;;8.07;5.70;;;26.10;99.90;;;27.85;100.00;94715.00;2159895;58;26804;-53
2021/07/30 07:50:24;;;;;;;6.85;5.78;;;27.40;99.90;;;29.62;100.00;94715.00;2368882;57;26227;-51
2021/07/30 07:53:15;;;;;;;5.62;5.20;;;28.10;99.90;;;30.79;100.00;94709.00;2145360;57;25764;-51
2021/07/30 07:56:03;;;;;;;5.97;5.37;;;28.80;99.90;;;31.48;100.00;94706.00;2373315;56;26620;-51
2021/07/30 07:58:49;;;;;;;5.90;5.40;;;28.50;99.90;;;30.48;100.00;94715.00;2372364;56;26672;-50
2021/07/30 08:01:35;;;;;;;6.53;5.93;;;27.60;99.90;;;28.87;100.00;94727.00;2160773;57;25727;-50
2021/07/30 08:04:22;;;;;;;6.00;5.50;;;27.00;99.90;;;28.16;100.00;94722.00;2161476;57;26134;-51
2021/07/30 08:07:10;;;;;;;6.72;5.90;;;27.20;99.90;;;29.11;100.00;94722.00;2160100;57;26772;-50
2021/07/30 08:12:52;;;;;;;8.23;5.87;;;28.10;99.90;;;32.91;100.00;94722.00;2367231;56;33180;-51
2021/07/30 08:15:40;;;;;;;6.15;5.55;;;30.80;99.90;;;33.47;87.35;94722.00;2352547;56;27452;-51
2021/07/30 08:18:27;;;;;;;6.12;5.62;;;30.70;99.90;;;33.60;83.11;94729.00;2111498;58;25755;-50
2021/07/30 08:24:09;;;;;;;6.28;5.78;;;31.50;99.90;;;33.75;76.59;94720.00;2422689;54;33827;-53
2021/07/30 08:29:53;;;;;;;6.60;6.00;;;30.60;99.90;;;33.63;87.99;94717.00;2422278;54;33070;-53
2021/07/30 08:32:39;;;;;;;6.97;6.30;;;31.20;99.90;;;33.72;87.18;94721.00;2181630;56;25209;-52
2021/07/30 08:35:25;;;;;;;7.10;6.40;;;30.80;99.90;;;32.42;87.95;94726.00;2166731;56;27659;-51
2021/07/30 08:38:12;;;;;;;6.68;6.07;;;31.10;99.90;;;33.82;92.78;94720.00;2382191;55;25811;-51
2021/07/30 08:40:58;;;;;;;6.60;5.97;;;32.10;99.90;;;34.26;85.40;94724.00;2167609;56;25741;-52
2021/07/30 08:43:48;;;;;;;5.75;5.20;;;32.40;99.90;;;35.09;81.80;94725.00;2382873;56;25947;-51
2021/07/30 08:49:34;;;;;;;6.00;5.50;;;32.80;99.90;;;34.38;77.55;94708.00;2342405;56;33630;-51
2021/07/30 08:55:28;;;;;;;5.78;5.28;;;33.00;99.90;;;35.32;68.51;94705.00;2358977;55;32935;-50
2021/07/30 08:58:15;;;;;;;6.22;5.62;;;33.60;99.90;;;36.60;71.41;94704.00;2144777;56;26162;-50
2021/07/30 09:01:01;;;;;;;6.10;5.60;;;33.90;99.90;;;37.31;63.26;94706.00;2351843;56;25838;-51
2021/07/30 09:03:48;;;;;;;5.50;5.00;;;33.70;99.90;;;36.20;59.97;94709.00;2169040;56;25761;-51
2021/07/30 09:06:34;;;;;;;5.90;5.40;;;33.40;99.90;;;35.98;59.61;94703.00;2399873;55;25697;-51
2021/07/30 09:09:20;;;;;;;5.90;5.30;;;33.90;99.90;;;36.24;61.43;94700.00;2187812;56;25649;-52
2021/07/30 09:12:07;;;;;;;5.65;5.15;;;33.90;99.90;;;35.81;57.26;94692.00;2405722;55;26288;-51
2021/07/30 09:14:54;;;;;;;6.00;5.43;;;32.80;99.90;;;35.36;60.18;94686.00;2194992;56;25690;-51
2021/07/30 09:17:41;;;;;;;5.95;5.45;;;33.40;99.90;;;36.27;60.96;94685.00;2180221;56;25912;-51
2021/07/30 09:20:27;;;;;;;7.47;5.62;;;33.80;99.90;;;36.69;59.83;94691.00;2406455;55;25717;-51
2021/07/30 09:23:18;;;;;;;6.28;5.70;;;33.10;99.90;;;35.23;64.84;94692.00;2190138;56;25680;-51
2021/07/30 09:26:04;;;;;;;5.57;5.07;;;32.40;99.90;;;34.28;64.04;94693.00;2406525;55;25635;-51
2021/07/30 09:28:56;;;;;;;5.57;5.10;;;32.00;99.90;;;34.27;67.29;94691.00;2188240;56;26246;-50
2021/07/30 09:31:46;;;;;;;6.93;5.82;;;32.10;99.90;;;33.74;66.13;94692.00;2179727;57;25683;-51
2021/07/30 09:34:36;;;;;;;6.28;5.78;;;30.70;99.90;;;31.85;80.44;94690.00;2375036;56;25798;-51
2021/07/30 09:37:26;;;;;;;6.32;5.40;;;31.50;99.90;;;33.82;79.92;94688.00;2177639;57;26859;-51
2021/07/30 09:40:21;;;;;;;5.97;5.43;;;32.60;99.90;;;34.73;58.01;94681.00;2402212;55;25739;-51
2021/07/30 09:46:19;;;;;;;5.40;5.00;;;33.70;99.90;;;36.70;68.78;94676.00;2438385;53;33856;-51
2021/07/30 09:49:05;;;;;;;5.70;5.07;;;34.10;99.90;;;36.80;53.49;94675.00;2421445;55;25699;-51
2021/07/30 09:51:52;;;;;;;5.40;5.00;;;34.10;99.90;;;35.97;67.59;94668.00;2200362;55;25674;-52
2021/07/30 09:54:44;;;;;;;5.30;4.90;;;33.70;99.90;;;36.23;60.66;94656.00;2417007;54;25648;-51
2021/07/30 09:57:32;;;;;;;6.78;5.35;;;33.40;99.90;;;35.91;55.91;94664.00;2202586;55;25772;-51
2021/07/30 10:00:20;;;;;;;5.78;5.12;;;33.30;99.90;;;35.41;58.74;94655.00;2418120;55;26157;-51
2021/07/30 10:03:09;;;;;;;5.32;4.82;;;33.30;99.90;;;34.53;61.69;94645.00;2197993;55;26136;-51
2021/07/30 10:05:56;;;;;;;5.43;4.95;;;32.80;99.90;;;34.18;61.13;94635.00;2420001;55;26161;-51
2021/07/30 10:08:44;;;;;;;6.00;4.95;;;32.50;99.90;;;34.16;57.61;94638.00;2198592;55;26306;-51
2021/07/30 10:14:29;;;;;;;5.72;5.07;;;32.10;99.90;;;34.12;59.81;94626.00;2368225;55;32956;-51
2021/07/30 10:20:14;;;;;;;5.95;5.45;;;32.00;99.90;;;33.53;63.87;94622.00;2477649;52;32003;-51
2021/07/30 10:23:04;;;;;;;5.30;4.80;;;32.10;99.90;;;34.31;64.11;94632.00;2226750;54;25600;-51
2021/07/30 10:25:53;;;;;;;6.62;4.85;;;32.40;99.90;;;34.28;66.63;94619.00;2234485;55;25102;-51
2021/07/30 10:28:40;;;;;;;5.78;5.28;;;32.20;99.90;;;33.31;59.49;94617.00;2463878;54;25681;-51
2021/07/30 10:34:48;;;;;;;5.32;4.82;;;31.50;99.90;;;33.84;64.23;94614.00;2444933;53;33469;-53
2021/07/30 10:37:35;;;;;;;5.15;4.70;;;31.90;99.90;;;33.29;58.03;94612.00;2185635;55;25827;-52
2021/07/30 10:40:25;;;;;;;6.32;5.30;;;31.70;99.90;;;32.73;65.37;94602.00;2196167;55;25562;-53
2021/07/30 10:43:14;;;;;;;5.45;4.95;;;32.20;99.90;;;33.99;67.04;94606.00;2184027;57;25179;-53
2021/07/30 10:46:13;;;;;;;6.60;5.00;;;31.20;99.90;;;32.12;68.86;94604.00;2183207;57;25228;-52
2021/07/30 10:48:59;;;;;;;5.50;5.00;;;31.00;99.90;;;31.68;72.11;94604.00;2183942;57;25159;-52
2021/07/30 10:51:46;;;;;;;5.50;4.85;;;29.70;99.90;;;29.87;73.86;94597.00;2408690;56;25879;-52
2021/07/30 10:57:53;;;;;;;5.22;4.72;;;29.00;99.90;;;29.92;83.17;94596.00;2377700;55;33881;-53
2021/07/30 11:04:05;;;;;;;5.95;4.93;;;30.50;99.90;;;31.76;80.13;94581.00;2301454;57;33363;-51
2021/07/30 11:09:53;;;;;;;5.37;4.97;;;32.20;99.90;;;32.80;75.25;94588.00;2356516;55;34209;-52
2021/07/30 11:12:40;;;;;;;5.68;4.87;;;32.20;99.90;;;32.74;77.95;94582.00;2130370;57;25716;-53
2021/07/30 11:15:33;;;;;;;5.12;4.60;;;32.40;99.90;;;32.93;77.41;94588.00;2362070;56;25696;-53
2021/07/30 11:18:20;;;;;;;5.40;4.90;;;32.70;99.90;;;33.29;74.75;94590.00;2162819;56;25798;-53
2021/07/30 11:21:06;;;;;;;5.12;4.72;;;33.00;99.90;;;34.12;69.88;94579.00;2377777;56;25226;-53
2021/07/30 11:23:52;;;;;;;5.50;5.00;;;33.00;99.90;;;33.49;71.05;94576.00;2373923;56;25694;-53
2021/07/30 11:26:40;;;;;;;5.35;4.85;;;32.80;99.90;;;33.41;63.37;94568.00;2153513;56;25167;-53
2021/07/30 11:29:28;;;;;;;5.93;5.40;;;32.70;99.90;;;33.39;64.66;94571.00;2165717;56;25261;-53
2021/07/30 11:32:16;;;;;;;5.55;5.05;;;32.40;99.90;;;33.44;76.82;94562.00;2163661;56;25769;-53
2021/07/30 11:35:09;;;;;;;5.50;5.10;;;32.20;99.90;;;32.54;69.34;94570.00;2378424;56;25186;-51
2021/07/30 11:41:08;;;;;;;5.95;5.45;;;31.20;99.90;;;31.81;77.86;94564.00;2445192;53;33721;-52
2021/07/30 11:44:07;;;;;;;7.57;5.80;;;30.50;99.90;;;30.46;82.55;94562.00;2417995;55;26774;-52
2021/07/30 11:46:56;;;;;;;6.50;5.40;;;29.90;99.90;;;30.32;91.78;94554.00;2206346;56;26632;-52
2021/07/30 11:52:41;;;;;;;7.78;5.90;;;29.70;99.90;;;29.67;99.68;94539.00;2452426;54;34686;-51
2021/07/30 11:55:28;;;;;;;5.47;5.07;;;29.60;99.90;;;30.31;100.00;94546.00;2210497;55;26173;-53
2021/07/30 12:01:10;;;;;;;6.15;5.55;;;30.20;99.90;;;31.63;100.00;94545.00;2403797;55;34126;-51
2021/07/30 12:07:11;;;;;;;6.40;4.95;;;31.20;99.90;;;32.22;100.00;94540.00;2394625;55;32850;-53
2021/07/30 12:15:51;;;;;;;6.68;6.07;;;30.70;99.90;;;30.50;88.81;94525.00;2176580;55;33917;-52
2021/07/30 12:21:56;;;;;;;6.25;5.65;;;29.70;99.90;;;30.80;100.00;94527.00;2310311;57;34159;-52
2021/07/30 12:24:51;;;;;;;5.97;5.40;;;30.60;99.90;;;30.82;92.50;94522.00;2302876;58;26679;-52
2021/07/30 12:27:38;;;;;;;5.75;5.12;;;31.10;99.90;;;31.50;90.92;94521.00;2110852;56;26837;-52
2021/07/30 12:30:29;;;;;;;6.28;5.12;;;31.30;99.90;;;31.89;89.69;94517.00;2336123;57;26621;-53
2021/07/30 12:33:26;;;;;;;5.75;5.25;;;30.90;99.90;;;31.29;100.00;94520.00;2137663;58;25671;-53
2021/07/30 12:39:12;;;;;;;6.10;5.50;;;30.80;99.90;;;31.43;94.76;94502.00;2365293;55;34215;-53
2021/07/30 12:41:59;;;;;;;6.50;5.90;;;31.10;99.90;;;31.49;100.00;94507.00;2162556;56;26650;-52
2021/07/30 12:47:59;;;;;;;6.07;5.43;;;30.70;99.90;;;30.48;94.01;94485.00;2205054;55;33838;-53
2021/07/30 12:50:46;;;;;;;6.32;5.60;;;30.50;99.90;;;30.88;95.46;94491.00;2393806;55;25710;-52
2021/07/30 12:56:55;;;;;;;5.60;5.10;;;30.80;99.90;;;31.27;89.48;94477.00;2370295;55;33637;-52
2021/07/30 13:02:47;;;;;;;6.32;5.70;;;30.20;99.90;;;30.43;94.45;94460.00;2385027;55;33353;-53
2021/07/30 13:05:38;;;;;;;6.45;5.85;;;30.20;99.90;;;30.38;95.65;94466.00;2142001;57;27517;-53
2021/07/30 13:08:26;;;;;;;6.05;5.55;;;30.20;99.90;;;30.41;86.60;94460.00;2176473;56;26874;-53
2021/07/30 13:11:13;;;;;;;10.52;5.65;;;29.40;99.90;;;29.64;94.41;94453.00;2180929;56;25586;-52
2021/07/30 13:13:59;;;;;;;6.32;5.28;;;29.40;99.90;;;29.79;99.14;94459.00;2401962;56;26598;-52
2021/07/30 13:16:46;;;;;;;5.70;5.20;;;29.90;99.90;;;30.45;99.62;94456.00;2182354;56;26742;-52
2021/07/30 13:19:33;;;;;;;5.60;5.10;;;30.50;99.90;;;31.21;100.00;94446.00;2400623;56;26946;-53
2021/07/30 13:22:19;;;;;;;5.85;5.35;;;30.60;99.90;;;31.29;90.26;94442.00;2182870;56;26733;-52
2021/07/30 13:28:06;;;;;;;5.75;5.25;;;29.90;99.90;;;30.38;95.72;94430.00;2394661;55;34340;-52
2021/07/30 13:30:54;;;;;;;6.72;5.80;;;29.70;99.90;;;30.25;95.20;94437.00;2188752;56;26583;-52
2021/07/30 13:33:41;;;;;;;5.80;5.20;;;30.10;99.90;;;30.44;100.00;94429.00;2427920;55;26709;-52
2021/07/30 13:36:27;;;;;;;6.10;5.60;;;30.30;99.90;;;30.66;92.09;94425.00;2207114;56;26689;-52
2021/07/30 13:39:13;;;;;;;6.00;5.40;;;30.30;99.90;;;30.72;90.50;94427.00;2184487;56;27343;-53
2021/07/30 13:42:00;;;;;;;5.93;5.43;;;30.10;99.90;;;30.60;92.54;94422.00;2399407;55;27123;-52
2021/07/30 13:44:52;;;;;;;6.00;5.50;;;29.70;99.90;;;30.00;93.23;94414.00;2182205;56;26812;-52
2021/07/30 13:47:39;;;;;;;5.93;5.40;;;29.70;99.90;;;30.19;96.56;94420.00;2176034;56;27476;-52
2021/07/30 13:50:25;;;;;;;7.22;5.87;;;29.80;99.90;;;30.45;97.87;94407.00;2144896;56;26920;-52
2021/07/30 13:53:11;;;;;;;6.28;5.78;;;29.80;99.90;;;30.28;92.53;94406.00;2368594;56;27019;-52
2021/07/30 13:55:59;;;;;;;7.03;5.57;;;29.50;99.90;;;29.85;97.38;94403.00;2147236;56;26651;-52
2021/07/30 13:58:45;;;;;;;6.15;5.55;;;29.60;99.90;;;30.22;94.24;94394.00;2367016;56;26779;-52
2021/07/30 14:01:33;;;;;;;5.70;5.10;;;29.90;99.90;;;30.72;100.00;94392.00;2156876;56;26629;-52
2021/07/30 14:04:19;;;;;;;5.97;5.40;;;30.20;99.90;;;30.95;96.87;94390.00;2363016;56;27320;-52
2021/07/30 14:10:02;;;;;;;7.10;5.85;;;30.40;99.90;;;31.46;100.00;94396.00;2399148;55;34849;-53